KMMU/MMU METAR and TAF weather

Enter ICAO airport designator
Station Type Date Time Source
KMMU METAR 2018/12/18 18:45 UTC NOAA

KMMU 181845Z 33011G19KT 10SM SKC 02/M09 A3006


Station Type Date Time Source
KMMU Decoded METAR 2018/12/18 18:45 UTC NOAA

Morristown Municipal, NJ, United States (KMMU) 40-48N 074-25W
Dec 18, 2018 - 01:45 PM EST / 2018.12.18 1845 UTC
Wind: from the NNW (330 degrees) at 13 MPH (11 KT) gusting to 22 MPH (19 KT):0
Visibility: 10 mile(s):0
Sky conditions: clear
Temperature: 35 F (2 C)
Windchill: 26 F (-3 C):1
Dew Point: 15 F (-9 C)
Relative Humidity: 43%
Pressure (altimeter): 30.06 in. Hg (1017 hPa)
ob: KMMU 181845Z 33011G19KT 10SM SKC 02/M09 A3006
cycle: 19

Station Type Date Time Source
KMMU TAF UTC NOAA

Error!


Example: see airport list